Kirk Sandall, United Kingdom
Current Conditions -  °F | °C
As of 8:50 PM on Friday 19 Dec 2014 (Local Time) from EGCN Reporting Station
Clear Clear  
Wind Chill: 37°   Ceiling: Unl
Heat Index: 46°   Visibility: 6mi
Dew Point: 37°   Wind: 30mph
Humidity: 71%   Direction: 260°W
Pressure: 30"   Gusts: NA
Location:  53.56°N, 1.07°W
Report Text: EGCN 192050Z 26026KT CAVOK 08/03 Q1016
Loading
Personal Weather Stations






























Interactive Weather Map New forecast layout! Learn more

10-Day Weather Forecast

Advertisements
Track Severe Weather on mobile